CheckWX is a tool to help pilots better visualize weather data.  It is not intended as a substitute for an official pre-flight weather briefing.

01:04:57 UTC

EGKB METAR
London Biggin Hill Airport
London, United Kingdom
Current

4 hours ago

EGKB 192120Z 22007KT CAVOK 13/12 Q1019
Observed
Aug-19 @ 21:20 UTC
Wind
  • 220° at 7 KTS
Visibility
10,000+ meters
Flight Rules
VFR
Cloud Levels
  • Clear skies
Temperature
13°C / 55°F
Dewpoint
12°C / 54°F
Humidity
94%
Altimeter
30.09" Hg
Pressure
1018.92 hPa
Previous

4 hours ago

EGKB 192050Z 22008KT CAVOK 13/12 Q1019
Observed
Aug-19 @ 20:50 UTC
Wind
  • 220° at 8 KTS
Visibility
10,000+ meters
Flight Rules
VFR
Cloud Levels
  • Clear skies
Temperature
13°C / 55°F
Dewpoint
12°C / 54°F
Humidity
94%
Altimeter
30.09" Hg
Pressure
1018.92 hPa
Previous

5 hours ago

EGKB 192020Z 21009KT CAVOK 13/12 Q1018
Observed
Aug-19 @ 20:20 UTC
Wind
  • 210° at 9 KTS
Visibility
10,000+ meters
Flight Rules
VFR
Cloud Levels
  • Clear skies
Temperature
13°C / 55°F
Dewpoint
12°C / 54°F
Humidity
94%
Altimeter
30.06" Hg
Pressure
1017.92 hPa